Map

Track Data

SID SEASON NUMBER BASIN SUBBASIN NAME ISO_TIME NATURE LAT LON WMO_WIND WMO_PRES WMO_AGENCY TRACK_TYPE DIST2LAND LANDFALL IFLAG USA_AGENCY USA_ATCF_ID USA_LAT USA_LON USA_RECORD USA_STATUS USA_WIND USA_PRES USA_SSHS USA_R34_NE USA_R34_SE USA_R34_SW USA_R34_NW USA_R50_NE USA_R50_SE USA_R50_SW USA_R50_NW USA_R64_NE USA_R64_SE USA_R64_SW USA_R64_NW USA_POCI USA_ROCI USA_RMW USA_EYE TOKYO_LAT TOKYO_LON TOKYO_GRADE TOKYO_WIND TOKYO_PRES TOKYO_R50_DIR TOKYO_R50_LONG TOKYO_R50_SHORT TOKYO_R30_DIR TOKYO_R30_LONG TOKYO_R30_SHORT TOKYO_LAND CMA_LAT CMA_LON CMA_CAT CMA_WIND CMA_PRES HKO_LAT HKO_LON HKO_CAT HKO_WIND HKO_PRES NEWDELHI_LAT NEWDELHI_LON NEWDELHI_GRADE NEWDELHI_WIND NEWDELHI_PRES NEWDELHI_CI NEWDELHI_DP NEWDELHI_POCI REUNION_LAT REUNION_LON REUNION_TYPE REUNION_WIND REUNION_PRES REUNION_TNUM REUNION_CI REUNION_RMW REUNION_R34_NE REUNION_R34_SE REUNION_R34_SW REUNION_R34_NW REUNION_R50_NE REUNION_R50_SE REUNION_R50_SW REUNION_R50_NW REUNION_R64_NE REUNION_R64_SE REUNION_R64_SW REUNION_R64_NW BOM_LAT BOM_LON BOM_TYPE BOM_WIND BOM_PRES BOM_TNUM BOM_CI BOM_RMW BOM_R34_NE BOM_R34_SE BOM_R34_SW BOM_R34_NW BOM_R50_NE BOM_R50_SE BOM_R50_SW BOM_R50_NW BOM_R64_NE BOM_R64_SE BOM_R64_SW BOM_R64_NW BOM_ROCI BOM_POCI BOM_EYE BOM_POS_METHOD BOM_PRES_METHOD NADI_LAT NADI_LON NADI_CAT NADI_WIND NADI_PRES WELLINGTON_LAT WELLINGTON_LON WELLINGTON_WIND WELLINGTON_PRES DS824_LAT DS824_LON DS824_STAGE DS824_WIND DS824_PRES TD9636_LAT TD9636_LON TD9636_STAGE TD9636_WIND TD9636_PRES TD9635_LAT TD9635_LON TD9635_WIND TD9635_PRES TD9635_ROCI NEUMANN_LAT NEUMANN_LON NEUMANN_CLASS NEUMANN_WIND NEUMANN_PRES MLC_LAT MLC_LON MLC_CLASS MLC_WIND MLC_PRES USA_GUST BOM_GUST BOM_GUST_PER REUNION_GUST REUNION_GUST_PER USA_SEAHGT USA_SEARAD_NE USA_SEARAD_SE USA_SEARAD_SW USA_SEARAD_NW STORM_SPEED STORM_DIR
1917085S13148 1917 17 SP EA NOT_NAMED 1917-03-25 23:00:00 NR -13.3000 147.600 bom main 312 312 ______O_______ -1 -13.3000 147.600 24 119
1917085S13148 1917 17 SP EA NOT_NAMED 1917-03-26 00:00:00 NR -13.4925 147.957 main 336 336 ______P_______ -1 -13.4925 147.957 24 119
1917085S13148 1917 17 SP EA NOT_NAMED 1917-03-26 03:00:00 NR -14.0726 149.032 main 402 395 ______P_______ -1 -14.0726 149.032 24 119
1917085S13148 1917 17 SP EA NOT_NAMED 1917-03-26 06:00:00 NR -14.6671 150.106 main 448 447 ______P_______ -1 -14.6671 150.106 24 120
1917085S13148 1917 17 SP EA NOT_NAMED 1917-03-26 09:00:00 NR -15.2900 151.178 main 522 522 ______P_______ -1 -15.2900 151.178 24 122
1917085S13148 1917 17 SP EA NOT_NAMED 1917-03-26 12:00:00 NR -15.9556 152.243 main 600 600 ______P_______ -1 -15.9556 152.243 25 124
1917085S13148 1917 17 SP EA NOT_NAMED 1917-03-26 15:00:00 NR -16.6787 153.300 main 622 622 ______P_______ -1 -16.6787 153.300 25 126
1917085S13148 1917 17 SP EA NOT_NAMED 1917-03-26 17:00:00 NR -17.2000 154.000 bom main 648 648 ______O_______ -1 -17.2000 154.000 26 128
1917085S13148 1917 17 SP EA NOT_NAMED 1917-03-26 18:00:00 NR -17.4732 154.348 main 657 657 ______P_______ -1 -17.4732 154.348 26 130
1917085S13148 1917 17 SP EA NOT_NAMED 1917-03-26 21:00:00 NR -18.2973 155.365 main 670 670 ______P_______ -1 -18.2973 155.365 25 130
1917085S13148 1917 17 SP EA NOT_NAMED 1917-03-26 23:00:00 NR -18.8000 156.000 bom main 680 680 ______O_______ -1 -18.8000 156.000 23 129
1917085S13148 1917 17 SP EA NOT_NAMED 1917-03-27 00:00:00 NR -19.0119 156.300 main 692 692 ______P_______ -1 -19.0119 156.300 19 124
1917085S13148 1917 17 SP EA NOT_NAMED 1917-03-27 03:00:00 NR -19.5288 157.122 main 709 648 ______P_______ -1 -19.5288 157.122 17 121
1917085S13148 1917 17 SP EA NOT_NAMED 1917-03-27 06:00:00 NR -19.8905 157.837 main 648 584 ______P_______ -1 -19.8905 157.837 14 115
1917085S13148 1917 17 SP EA NOT_NAMED 1917-03-27 09:00:00 NR -20.1262 158.459 main 574 521 ______P_______ -1 -20.1262 158.459 12 109
1917085S13148 1917 17 SP EA NOT_NAMED 1917-03-27 12:00:00 NR -20.2649 159.003 main 521 469 ______P_______ -1 -20.2649 159.003 10 102
1917085S13148 1917 17 SP EA NOT_NAMED 1917-03-27 15:00:00 NR -20.3350 159.486 main 469 427 ______P_______ -1 -20.3350 159.486 9 97
1917085S13148 1917 17 SP EA NOT_NAMED 1917-03-27 18:00:00 NR -20.3647 159.924 main 427 385 ______P_______ -1 -20.3647 159.924 8 93
1917085S13148 1917 17 SP MM NOT_NAMED 1917-03-27 21:00:00 NR -20.3818 160.334 main 385 354 ______P_______ -1 -20.3818 160.334 8 93
1917085S13148 1917 17 SP MM NOT_NAMED 1917-03-27 23:00:00 NR -20.4000 160.600 bom main 354 344 ______O_______ -1 -20.4000 160.600 8 95
1917085S13148 1917 17 SP MM NOT_NAMED 1917-03-28 00:00:00 NR -20.4140 160.733 main 344 303 ______P_______ -1 -20.4140 160.733 8 99
1917085S13148 1917 17 SP MM NOT_NAMED 1917-03-28 03:00:00 NR -20.4769 161.130 main 303 262 ______P_______ -1 -20.4769 161.130 8 102
1917085S13148 1917 17 SP MM NOT_NAMED 1917-03-28 06:00:00 NR -20.5676 161.529 main 262 223 ______P_______ -1 -20.5676 161.529 8 105
1917085S13148 1917 17 SP MM NOT_NAMED 1917-03-28 09:00:00 NR -20.6820 161.928 main 223 185 ______P_______ -1 -20.6820 161.928 8 108
1917085S13148 1917 17 SP MM NOT_NAMED 1917-03-28 12:00:00 NR -20.8156 162.327 main 185 151 ______P_______ -1 -20.8156 162.327 8 111
1917085S13148 1917 17 SP MM NOT_NAMED 1917-03-28 15:00:00 NR -20.9641 162.728 main 156 129 ______P_______ -1 -20.9641 162.728 8 112
1917085S13148 1917 17 SP MM NOT_NAMED 1917-03-28 18:00:00 NR -21.1232 163.129 main 129 108 ______P_______ -1 -21.1232 163.129 8 113
1917085S13148 1917 17 SP MM NOT_NAMED 1917-03-28 21:00:00 NR -21.2885 163.531 main 108 91 ______P_______ -1 -21.2885 163.531 8 114
1917085S13148 1917 17 SP MM NOT_NAMED 1917-03-28 23:00:00 NR -21.4000 163.800 980 bom main 91 ______O_______ -1 -21.4000 163.800 980 4 8 114

Digital Typhoon Data and Search

About IBTrACS Database

This database is a web-friendly format of International Best Track Archive for Climate Stewardship (IBTrACS), a global best track data archive curated by NOAA dating back to 1842.

Updated: 2021-12-03